Time;durP1;ratioP1;P1;durP2;ratioP2;P2;SDS_P1;SDS_P2;PMS_P1;PMS_P2;Temp;Humidity;BMP_temperature;BMP_pressure;BME280_temperature;BME280_humidity;BME280_pressure;Samples;Min_cycle;Max_cycle;Signal;HPM_P1;HPM_P2
2023/05/21 00:01:06;;;;;;;1999.90;999.90;;;13.30;82.40;;;;;;5032370;28;20074;-78
2023/05/21 00:03:34;;;;;;;1999.90;999.90;;;13.30;82.70;;;;;;5024961;28;20042;-80
2023/05/21 00:06:02;;;;;;;1999.90;999.90;;;13.30;82.80;;;;;;5033696;28;20495;-79
2023/05/21 00:08:28;;;;;;;1999.90;999.90;;;13.30;82.60;;;;;;5012674;28;20033;-80
2023/05/21 00:10:53;;;;;;;1999.90;999.90;;;13.30;82.40;;;;;;5027966;28;20397;-78
2023/05/21 00:13:19;;;;;;;1999.90;999.90;;;13.30;82.60;;;;;;5026242;28;20037;-84
2023/05/21 00:15:45;;;;;;;1999.90;999.90;;;13.20;82.90;;;;;;5028808;28;20144;-83
2023/05/21 00:18:10;;;;;;;1999.90;999.90;;;13.30;82.90;;;;;;5021759;28;20108;-81
2023/05/21 00:20:37;;;;;;;1999.90;999.90;;;13.30;83.20;;;;;;5034240;28;20033;-80
2023/05/21 00:23:03;;;;;;;1999.90;999.90;;;13.30;83.00;;;;;;5025730;28;20033;-80
2023/05/21 00:25:28;;;;;;;1999.90;999.90;;;13.30;83.00;;;;;;5017144;28;20504;-80
2023/05/21 00:27:54;;;;;;;1999.90;999.90;;;13.20;82.90;;;;;;5020817;28;20050;-81
2023/05/21 00:30:20;;;;;;;1999.90;999.90;;;13.10;83.70;;;;;;5030292;28;20045;-82
2023/05/21 00:32:46;;;;;;;1999.90;999.90;;;13.10;84.20;;;;;;5032157;28;20025;-82
2023/05/21 00:35:12;;;;;;;1999.90;999.90;;;13.10;84.70;;;;;;5031034;28;21354;-82
2023/05/21 00:37:37;;;;;;;1999.90;999.90;;;13.00;84.70;;;;;;5028614;28;20159;-82
2023/05/21 00:40:06;;;;;;;1999.90;999.90;;;13.10;84.90;;;;;;5032760;28;20369;-84
2023/05/21 00:42:32;;;;;;;1999.90;999.90;;;13.00;84.50;;;;;;5029807;28;20032;-80
2023/05/21 00:44:58;;;;;;;1999.90;999.90;;;13.00;84.60;;;;;;5033199;28;20030;-82
2023/05/21 00:47:28;;;;;;;1999.90;999.90;;;13.00;85.00;;;;;;5025825;28;20057;-81
2023/05/21 00:49:53;;;;;;;1999.90;999.90;;;12.90;85.50;;;;;;5029574;28;20041;-81
2023/05/21 00:52:20;;;;;;;1999.90;999.90;;;12.90;85.70;;;;;;5031739;28;20033;-81
2023/05/21 00:54:48;;;;;;;1999.90;999.90;;;12.90;85.90;;;;;;5037323;28;20073;-81
2023/05/21 00:57:15;;;;;;;1999.90;999.90;;;12.80;86.20;;;;;;5029984;28;20496;-81
2023/05/21 00:59:41;;;;;;;1999.90;999.90;;;12.70;86.90;;;;;;5050343;28;20067;-82
2023/05/21 01:02:08;;;;;;;1999.90;999.90;;;12.70;87.10;;;;;;5031828;28;20063;-81
2023/05/21 01:04:34;;;;;;;1999.90;999.90;;;12.70;87.10;;;;;;5029424;28;20034;-83
2023/05/21 01:07:00;;;;;;;1999.90;999.90;;;12.70;87.10;;;;;;5019298;28;20735;-82
2023/05/21 01:09:27;;;;;;;1999.90;999.90;;;12.60;87.40;;;;;;5031980;28;20515;-84
2023/05/21 01:11:54;;;;;;;1999.90;999.90;;;12.70;88.10;;;;;;5029523;28;20036;-80
2023/05/21 01:14:22;;;;;;;1999.90;999.90;;;12.60;87.80;;;;;;5021744;28;20079;-80
2023/05/21 01:16:50;;;;;;;1999.90;999.90;;;12.60;88.10;;;;;;5020925;28;20034;-81
2023/05/21 01:19:19;;;;;;;507.13;470.67;;;12.70;88.30;;;;;;5022060;28;20033;-81
2023/05/21 01:21:48;;;;;;;1999.90;999.90;;;12.50;88.20;;;;;;5017174;28;20053;-82
2023/05/21 01:24:14;;;;;;;876.00;599.60;;;12.50;88.70;;;;;;5020823;28;20488;-83
2023/05/21 01:26:42;;;;;;;566.33;524.53;;;12.40;89.30;;;;;;5029527;28;20037;-79
2023/05/21 01:29:12;;;;;;;517.03;480.23;;;12.40;89.40;;;;;;5050796;28;20048;-79
2023/05/21 01:31:49;;;;;;;635.70;591.15;;;12.40;89.90;;;;;;5027162;28;20043;-81
2023/05/21 01:34:19;;;;;;;644.35;601.50;;;12.30;90.10;;;;;;5045167;28;20036;-77
2023/05/21 01:36:52;;;;;;;666.83;623.40;;;12.30;90.20;;;;;;5027989;28;20057;-78
2023/05/21 01:39:24;;;;;;;625.08;583.55;;;12.30;90.30;;;;;;5027940;28;20020;-79
2023/05/21 01:41:53;;;;;;;626.95;586.08;;;12.20;90.30;;;;;;5028314;28;20034;-80
2023/05/21 01:44:20;;;;;;;722.78;676.78;;;12.10;90.30;;;;;;5030877;28;20033;-77
2023/05/21 01:46:48;;;;;;;689.78;646.42;;;12.20;90.70;;;;;;5031600;28;20112;-82
2023/05/21 01:49:15;;;;;;;681.65;637.67;;;12.10;91.00;;;;;;5032062;28;20098;-78
2023/05/21 01:51:42;;;;;;;694.75;650.70;;;12.20;90.90;;;;;;5025516;28;20041;-80
2023/05/21 01:54:07;;;;;;;673.65;632.72;;;12.10;90.90;;;;;;5037043;28;20053;-79
2023/05/21 01:56:35;;;;;;;652.75;615.08;;;12.10;91.00;;;;;;5027223;28;20068;-78
2023/05/21 01:59:01;;;;;;;668.78;628.92;;;12.00;91.00;;;;;;5030964;28;20030;-80
2023/05/21 02:01:29;;;;;;;644.40;607.33;;;12.10;91.30;;;;;;5027493;28;20368;-81
2023/05/21 02:03:56;;;;;;;661.05;624.38;;;12.20;91.30;;;;;;5034893;28;20556;-79
2023/05/21 02:06:22;;;;;;;668.85;629.10;;;12.10;91.20;;;;;;5025205;28;20041;-79
2023/05/21 02:08:48;;;;;;;687.97;648.97;;;12.20;91.40;;;;;;5016673;28;20034;-78
2023/05/21 02:11:13;;;;;;;688.65;648.55;;;12.10;91.20;;;;;;5029488;28;20037;-82
2023/05/21 02:13:41;;;;;;;684.88;645.88;;;12.00;91.30;;;;;;5030852;28;20037;-80
2023/05/21 02:16:13;;;;;;;702.33;662.38;;;11.90;91.40;;;;;;5028712;28;20447;-80
2023/05/21 02:18:42;;;;;;;668.33;631.88;;;11.90;91.40;;;;;;5034536;28;20376;-80
2023/05/21 02:21:12;;;;;;;628.53;593.35;;;11.80;91.60;;;;;;5029455;28;20021;-80
2023/05/21 02:23:37;;;;;;;630.28;597.30;;;11.90;92.20;;;;;;5034786;28;20036;-81
2023/05/21 02:26:03;;;;;;;629.83;596.88;;;12.00;92.50;;;;;;5030103;28;20050;-78
2023/05/21 02:28:29;;;;;;;638.25;605.70;;;12.00;92.50;;;;;;5035359;28;20049;-79
2023/05/21 02:30:55;;;;;;;574.30;545.67;;;12.00;92.50;;;;;;5033099;28;20088;-78
2023/05/21 02:33:22;;;;;;;639.90;606.40;;;12.00;92.70;;;;;;5015812;28;20036;-82
2023/05/21 02:35:48;;;;;;;619.20;587.53;;;12.00;92.60;;;;;;5033076;28;20040;-78
2023/05/21 02:38:18;;;;;;;607.70;575.80;;;12.00;92.60;;;;;;5038999;28;20406;-78
2023/05/21 02:40:44;;;;;;;554.30;526.22;;;12.00;92.60;;;;;;5027123;28;20028;-79
2023/05/21 02:43:10;;;;;;;556.08;529.35;;;11.90;92.60;;;;;;5032821;28;20029;-78
2023/05/21 02:45:36;;;;;;;535.25;508.90;;;11.80;92.70;;;;;;5035587;28;20106;-79
2023/05/21 02:48:02;;;;;;;539.58;513.03;;;11.80;92.80;;;;;;5031732;28;20034;-79
2023/05/21 02:50:28;;;;;;;545.53;518.63;;;11.80;92.80;;;;;;5025033;28;20041;-81
2023/05/21 02:52:54;;;;;;;536.30;509.10;;;11.70;92.80;;;;;;5032476;28;20064;-82
2023/05/21 02:55:20;;;;;;;532.30;506.17;;;11.70;93.00;;;;;;5032377;28;20586;-80
2023/05/21 02:57:46;;;;;;;525.63;500.20;;;11.80;93.00;;;;;;5035102;28;20025;-79
2023/05/21 03:00:12;;;;;;;528.10;502.67;;;11.70;92.90;;;;;;5029346;28;20026;-79
2023/05/21 03:02:39;;;;;;;542.13;515.30;;;11.60;92.90;;;;;;5041823;28;20029;-79
2023/05/21 03:05:05;;;;;;;506.40;481.65;;;11.60;92.80;;;;;;5023487;28;20036;-82
2023/05/21 03:07:31;;;;;;;499.38;475.02;;;11.60;93.00;;;;;;5028738;28;20488;-80
2023/05/21 03:09:57;;;;;;;486.67;463.63;;;11.50;93.10;;;;;;5039875;28;20116;-80
2023/05/21 03:12:22;;;;;;;496.95;473.48;;;11.50;93.10;;;;;;5030719;28;20117;-82
2023/05/21 03:14:50;;;;;;;496.05;472.92;;;11.60;93.50;;;;;;5030526;28;20476;-79
2023/05/21 03:17:16;;;;;;;470.70;448.13;;;11.50;93.20;;;;;;5035446;28;20068;-78
2023/05/21 03:19:42;;;;;;;474.45;452.50;;;11.40;93.20;;;;;;5033955;28;20399;-79
2023/05/21 03:22:08;;;;;;;477.13;454.65;;;11.40;93.20;;;;;;5025719;28;20029;-79
2023/05/21 03:24:35;;;;;;;464.90;442.75;;;11.40;93.30;;;;;;5032715;28;20044;-79
2023/05/21 03:27:01;;;;;;;437.73;417.35;;;11.40;93.60;;;;;;5027751;28;20037;-80
2023/05/21 03:29:27;;;;;;;456.08;434.75;;;11.40;93.40;;;;;;5029405;28;20060;-78
2023/05/21 03:31:53;;;;;;;444.35;424.27;;;11.30;93.20;;;;;;5025688;28;20109;-79
2023/05/21 03:34:20;;;;;;;460.27;438.30;;;11.40;93.20;;;;;;5033638;28;20470;-80
2023/05/21 03:36:46;;;;;;;433.27;413.30;;;11.30;93.30;;;;;;5029638;28;20029;-81
2023/05/21 03:39:12;;;;;;;483.77;460.98;;;11.30;93.20;;;;;;5033442;28;20021;-81
2023/05/21 03:41:38;;;;;;;471.85;449.38;;;11.20;93.40;;;;;;5023507;28;20747;-79
2023/05/21 03:44:03;;;;;;;491.85;468.95;;;11.20;93.10;;;;;;5033374;28;20029;-78
2023/05/21 03:46:29;;;;;;;470.45;448.90;;;11.20;92.80;;;;;;5028075;28;20451;-80
2023/05/21 03:48:56;;;;;;;433.70;413.02;;;11.20;93.00;;;;;;5033534;28;20076;-79
2023/05/21 03:51:23;;;;;;;429.35;409.67;;;11.30;93.10;;;;;;5043276;28;20041;-80
2023/05/21 03:53:49;;;;;;;443.38;423.23;;;11.20;92.90;;;;;;5035047;28;20120;-79
2023/05/21 03:56:15;;;;;;;452.02;431.48;;;11.20;93.20;;;;;;5025228;28;20029;-79
2023/05/21 03:58:41;;;;;;;467.13;445.30;;;11.10;93.00;;;;;;5028774;28;20059;-80
2023/05/21 04:01:07;;;;;;;456.92;435.33;;;11.20;93.00;;;;;;5016795;28;20037;-79
2023/05/21 04:03:34;;;;;;;438.67;417.90;;;11.20;92.90;;;;;;5032464;28;20038;-78
2023/05/21 04:06:00;;;;;;;388.15;370.17;;;11.20;93.20;;;;;;5025540;28;20030;-80
2023/05/21 04:08:26;;;;;;;382.08;364.67;;;11.20;93.30;;;;;;5024992;28;20442;-79
2023/05/21 04:10:52;;;;;;;367.20;350.48;;;11.40;93.50;;;;;;5023507;28;20105;-83
2023/05/21 04:13:17;;;;;;;392.77;374.90;;;11.40;93.20;;;;;;5027445;28;20033;-81
2023/05/21 04:15:45;;;;;;;416.85;398.15;;;11.40;93.10;;;;;;5021929;28;20042;-80
2023/05/21 04:18:14;;;;;;;373.33;356.45;;;11.40;93.00;;;;;;5023014;28;20029;-80
2023/05/21 04:20:40;;;;;;;379.60;362.48;;;11.40;92.90;;;;;;5020491;28;20682;-79
2023/05/21 04:23:05;;;;;;;375.83;359.02;;;11.50;92.90;;;;;;5021451;28;20124;-82
2023/05/21 04:25:31;;;;;;;358.25;342.17;;;11.60;92.90;;;;;;5028932;28;20030;-81
2023/05/21 04:27:56;;;;;;;332.95;317.98;;;11.60;92.90;;;;;;5012562;28;20581;-82
2023/05/21 04:30:22;;;;;;;331.65;316.35;;;11.60;93.00;;;;;;5035167;28;20068;-82
2023/05/21 04:32:48;;;;;;;328.58;313.95;;;11.70;93.00;;;;;;5029742;28;20471;-78
2023/05/21 04:35:14;;;;;;;353.95;337.73;;;11.80;93.00;;;;;;5029090;28;20116;-80
2023/05/21 04:37:41;;;;;;;312.30;298.05;;;11.80;92.70;;;;;;5036572;28;20025;-81
2023/05/21 04:40:17;;;;;;;349.88;334.02;;;11.80;92.70;;;;;;5032873;28;20029;-81
2023/05/21 04:42:47;;;;;;;337.35;322.23;;;11.80;92.60;;;;;;5049149;28;20029;-82
2023/05/21 04:45:13;;;;;;;349.20;333.30;;;11.90;92.70;;;;;;5026639;28;20018;-79
2023/05/21 04:47:38;;;;;;;349.10;333.15;;;12.00;92.80;;;;;;5032430;28;20037;-80
2023/05/21 04:50:05;;;;;;;332.00;317.08;;;12.10;93.10;;;;;;5026668;28;20449;-80
2023/05/21 04:52:31;;;;;;;355.95;339.80;;;12.20;92.80;;;;;;5038622;28;20034;-80
2023/05/21 04:54:56;;;;;;;350.08;334.50;;;12.10;92.90;;;;;;5027037;28;20041;-82
2023/05/21 04:57:26;;;;;;;338.27;322.67;;;12.40;92.90;;;;;;5027234;28;20031;-80
2023/05/21 04:59:52;;;;;;;333.30;318.23;;;12.40;92.80;;;;;;5035592;28;20387;-80
2023/05/21 05:02:22;;;;;;;313.13;299.48;;;12.60;92.50;;;;;;5034929;28;20033;-80
2023/05/21 05:04:48;;;;;;;312.77;298.70;;;12.70;92.20;;;;;;5021937;28;20026;-84
2023/05/21 05:07:15;;;;;;;349.33;333.73;;;12.60;92.10;;;;;;5022993;28;20104;-79
2023/05/21 05:09:41;;;;;;;332.10;317.67;;;12.80;92.20;;;;;;5015434;28;20079;-80
2023/05/21 05:12:07;;;;;;;391.85;374.10;;;13.00;91.80;;;;;;5040221;28;20069;-80
2023/05/21 05:14:32;;;;;;;442.92;422.55;;;13.00;91.60;;;;;;5043966;28;20044;-80
2023/05/21 05:16:58;;;;;;;433.92;414.55;;;13.30;91.10;;;;;;5032165;28;20077;-80
2023/05/21 05:19:25;;;;;;;438.02;417.85;;;13.40;91.00;;;;;;5012919;28;20029;-82
2023/05/21 05:21:50;;;;;;;450.75;429.73;;;13.40;90.80;;;;;;5034666;28;20046;-85
2023/05/21 05:24:17;;;;;;;504.83;481.15;;;13.50;90.70;;;;;;5027528;28;20068;-84
2023/05/21 05:26:43;;;;;;;473.10;451.15;;;13.60;90.50;;;;;;5022697;28;20146;-84
2023/05/21 05:29:09;;;;;;;516.13;491.85;;;13.70;90.30;;;;;;5009714;28;20049;-82
2023/05/21 05:31:36;;;;;;;506.40;482.65;;;13.70;90.40;;;;;;5008511;28;20400;-83
2023/05/21 05:34:02;;;;;;;509.60;485.58;;;13.60;90.60;;;;;;5010851;28;20030;-82
2023/05/21 05:36:30;;;;;;;490.33;467.77;;;13.90;90.30;;;;;;5006548;28;20042;-86
2023/05/21 05:38:55;;;;;;;526.38;501.05;;;13.90;90.00;;;;;;5031078;28;20033;-80
2023/05/21 05:41:21;;;;;;;500.02;476.77;;;13.90;89.90;;;;;;5022491;28;20034;-80
2023/05/21 05:43:47;;;;;;;535.70;510.27;;;13.90;89.30;;;;;;5018929;28;20903;-80
2023/05/21 05:46:13;;;;;;;520.33;495.90;;;13.90;89.80;;;;;;5026731;28;20030;-81
2023/05/21 05:48:39;;;;;;;522.08;497.48;;;14.20;89.20;;;;;;5020467;28;20033;-82
2023/05/21 05:51:05;;;;;;;526.58;501.77;;;14.10;89.20;;;;;;5022302;28;20107;-82
2023/05/21 05:53:32;;;;;;;530.08;504.30;;;14.10;88.90;;;;;;5027073;28;20575;-80
2023/05/21 05:55:58;;;;;;;530.40;504.58;;;14.10;89.50;;;;;;5023242;28;20033;-79
2023/05/21 05:58:24;;;;;;;540.30;514.15;;;14.20;89.00;;;;;;5037786;28;20088;-79
2023/05/21 06:00:51;;;;;;;548.30;521.08;;;14.20;88.70;;;;;;5024560;28;20060;-79
2023/05/21 06:03:18;;;;;;;549.70;523.08;;;14.00;89.20;;;;;;5027195;28;20036;-79
2023/05/21 06:05:43;;;;;;;556.53;529.25;;;14.30;89.20;;;;;;5022616;28;20041;-81
2023/05/21 06:08:09;;;;;;;565.95;538.03;;;14.50;88.10;;;;;;5030222;28;20044;-81
2023/05/21 06:10:35;;;;;;;553.85;527.25;;;14.30;87.70;;;;;;5011483;28;20174;-79
2023/05/21 06:13:01;;;;;;;563.30;535.45;;;14.40;88.20;;;;;;5022147;28;20037;-82
2023/05/21 06:15:26;;;;;;;595.22;564.88;;;14.40;87.50;;;;;;5024403;28;20076;-79
2023/05/21 06:17:52;;;;;;;584.08;555.03;;;14.50;87.70;;;;;;5023180;28;20080;-79
2023/05/21 06:20:18;;;;;;;609.53;578.03;;;14.30;87.70;;;;;;5026138;28;20029;-79
2023/05/21 06:22:43;;;;;;;627.20;594.33;;;14.50;87.80;;;;;;5027263;28;20408;-84
2023/05/21 06:25:09;;;;;;;626.90;594.22;;;14.80;87.40;;;;;;5024951;28;20084;-82
2023/05/21 06:27:36;;;;;;;615.60;583.45;;;15.00;86.40;;;;;;5023639;28;20077;-83
2023/05/21 06:30:02;;;;;;;589.63;559.17;;;14.80;86.00;;;;;;5039116;28;20124;-78
2023/05/21 06:32:27;;;;;;;624.20;591.55;;;14.70;86.00;;;;;;5027228;28;20104;-81
2023/05/21 06:34:53;;;;;;;646.03;611.70;;;14.70;86.80;;;;;;5025834;28;20036;-79
2023/05/21 06:37:22;;;;;;;633.25;599.65;;;14.60;86.70;;;;;;5026513;28;20029;-85
2023/05/21 06:39:48;;;;;;;623.53;590.03;;;14.80;86.90;;;;;;5018760;28;20038;-85
2023/05/21 06:42:15;;;;;;;652.60;617.05;;;15.10;85.90;;;;;;5028918;28;20029;-80
2023/05/21 06:44:41;;;;;;;661.50;624.35;;;15.40;85.20;;;;;;5028741;28;20091;-83
2023/05/21 06:47:07;;;;;;;689.83;650.70;;;15.40;84.70;;;;;;5032607;28;20030;-84
2023/05/21 06:49:34;;;;;;;642.25;608.45;;;15.50;84.00;;;;;;5031886;28;20042;-85
2023/05/21 06:52:00;;;;;;;743.58;699.63;;;15.50;83.60;;;;;;5029139;28;20029;-82
2023/05/21 06:54:27;;;;;;;797.83;748.38;;;15.80;83.40;;;;;;5026365;28;20049;-80
2023/05/21 06:56:52;;;;;;;804.03;753.58;;;16.00;83.00;;;;;;5022958;28;20057;-80
2023/05/21 06:59:18;;;;;;;804.75;755.28;;;16.00;81.90;;;;;;5026679;28;20076;-80
2023/05/21 07:01:45;;;;;;;808.53;758.03;;;16.00;81.90;;;;;;5014778;28;20595;-85
2023/05/21 07:04:12;;;;;;;807.90;757.17;;;15.70;83.20;;;;;;5028011;28;20115;-84
2023/05/21 07:06:38;;;;;;;796.40;747.22;;;15.90;82.70;;;;;;5026113;28;20042;-79
2023/05/21 07:09:04;;;;;;;808.03;756.78;;;15.90;82.10;;;;;;5030726;28;20037;-83
2023/05/21 07:11:31;;;;;;;805.35;755.33;;;15.70;82.70;;;;;;5031936;28;20087;-82
2023/05/21 07:13:59;;;;;;;815.60;763.08;;;16.00;82.30;;;;;;5030906;28;20045;-81
2023/05/21 07:16:25;;;;;;;819.85;768.75;;;16.10;82.70;;;;;;5024305;28;20362;-78
2023/05/21 07:18:51;;;;;;;795.08;743.30;;;16.30;81.60;;;;;;5030118;28;20039;-80
2023/05/21 07:21:16;;;;;;;822.10;768.10;;;16.20;81.40;;;;;;5022889;28;20030;-78
2023/05/21 07:23:42;;;;;;;823.90;770.47;;;15.90;81.90;;;;;;5028431;28;20021;-80
2023/05/21 07:26:10;;;;;;;832.25;779.35;;;16.30;81.70;;;;;;5031068;28;20116;-79
2023/05/21 07:28:36;;;;;;;825.17;771.22;;;16.40;80.40;;;;;;5031187;28;20520;-79
2023/05/21 07:31:03;;;;;;;789.95;735.58;;;16.50;80.80;;;;;;5029114;28;20095;-80
2023/05/21 07:33:29;;;;;;;816.13;762.92;;;16.50;81.00;;;;;;5014155;28;20033;-81
2023/05/21 07:35:55;;;;;;;823.22;770.00;;;16.40;80.70;;;;;;5020874;28;20486;-79
2023/05/21 07:38:20;;;;;;;875.35;809.45;;;16.30;81.40;;;;;;5030517;28;20029;-80
2023/05/21 07:40:47;;;;;;;867.30;804.58;;;16.80;80.20;;;;;;5031003;28;20700;-79
2023/05/21 07:43:14;;;;;;;806.30;746.72;;;17.00;79.90;;;;;;5029821;28;20068;-80
2023/05/21 07:45:40;;;;;;;1999.90;999.90;;;17.30;77.30;;;;;;5034465;28;20825;-78
2023/05/21 07:48:06;;;;;;;397.02;364.65;;;17.20;77.30;;;;;;5027532;28;20168;-77
2023/05/21 07:50:31;;;;;;;736.10;677.47;;;17.10;77.40;;;;;;5014280;28;20388;-80
2023/05/21 07:52:57;;;;;;;1999.90;999.90;;;17.40;77.70;;;;;;5033185;28;20037;-81
2023/05/21 07:55:23;;;;;;;711.60;654.10;;;17.00;77.90;;;;;;5009944;28;20390;-79
2023/05/21 07:57:51;;;;;;;737.08;678.55;;;17.30;78.30;;;;;;5030794;28;20104;-79
2023/05/21 08:00:17;;;;;;;734.25;678.80;;;17.50;78.80;;;;;;5029804;28;20035;-80
2023/05/21 08:02:43;;;;;;;279.67;254.60;;;17.10;77.50;;;;;;5028128;28;20496;-79
2023/05/21 08:05:09;;;;;;;789.53;731.28;;;17.10;77.90;;;;;;5029182;28;20029;-79
2023/05/21 08:07:35;;;;;;;617.05;564.92;;;17.10;78.50;;;;;;5030729;28;20122;-78
2023/05/21 08:10:01;;;;;;;1999.90;999.90;;;17.50;78.70;;;;;;5033024;28;20033;-79
2023/05/21 08:12:26;;;;;;;459.48;418.35;;;17.80;76.60;;;;;;5033616;28;20109;-79
2023/05/21 08:14:52;;;;;;;1999.90;999.90;;;18.00;76.10;;;;;;5025405;28;20057;-80
2023/05/21 08:17:18;;;;;;;1999.90;999.90;;;18.30;74.70;;;;;;5034094;28;20116;-78
2023/05/21 08:19:43;;;;;;;1999.90;999.90;;;18.00;75.10;;;;;;5031079;28;20041;-79
2023/05/21 08:22:09;;;;;;;1999.90;999.90;;;18.10;75.10;;;;;;5012583;28;20557;-78
2023/05/21 08:24:36;;;;;;;1999.90;999.90;;;18.30;74.40;;;;;;5032553;28;20530;-80
2023/05/21 08:27:02;;;;;;;1999.90;999.90;;;18.30;73.90;;;;;;5035095;28;20399;-80
2023/05/21 08:29:27;;;;;;;1999.90;999.90;;;18.30;74.90;;;;;;5032801;28;20059;-80
2023/05/21 08:31:53;;;;;;;1999.90;999.90;;;18.30;74.90;;;;;;5033404;28;20040;-80
2023/05/21 08:34:19;;;;;;;1999.90;999.90;;;18.50;72.60;;;;;;5030959;28;20037;-78
2023/05/21 08:36:45;;;;;;;1999.90;999.90;;;18.40;75.20;;;;;;5032003;28;20025;-79
2023/05/21 08:39:12;;;;;;;1999.90;999.90;;;18.40;74.00;;;;;;5014520;28;20033;-77
2023/05/21 08:41:39;;;;;;;1999.90;999.90;;;18.40;74.30;;;;;;5030693;28;20026;-78
2023/05/21 08:44:10;;;;;;;1999.90;999.90;;;18.60;73.90;;;;;;5015273;28;20057;-80
2023/05/21 08:46:39;;;;;;;1999.90;999.90;;;18.80;74.20;;;;;;5032827;28;20115;-79
2023/05/21 08:49:10;;;;;;;1999.90;999.90;;;18.90;72.60;;;;;;5030994;28;20055;-79
2023/05/21 08:51:37;;;;;;;1999.90;999.90;;;18.90;73.00;;;;;;5035235;28;20030;-79
2023/05/21 08:54:04;;;;;;;1999.90;999.90;;;19.00;74.00;;;;;;5027676;28;20109;-79
2023/05/21 08:56:31;;;;;;;1999.90;999.90;;;19.10;72.80;;;;;;5033699;28;20180;-76
2023/05/21 08:58:59;;;;;;;1999.90;999.90;;;19.30;73.10;;;;;;5030154;28;20497;-78
2023/05/21 09:01:25;;;;;;;1999.90;999.90;;;19.30;72.80;;;;;;5032568;28;20044;-77
2023/05/21 09:03:52;;;;;;;1999.90;999.90;;;19.50;70.90;;;;;;5031360;28;20033;-77
2023/05/21 09:06:18;;;;;;;1999.90;999.90;;;19.40;70.70;;;;;;5028633;28;20025;-76
2023/05/21 09:08:47;;;;;;;1999.90;999.90;;;19.20;70.70;;;;;;5031908;28;20036;-75
2023/05/21 09:11:13;;;;;;;1999.90;999.90;;;19.50;70.00;;;;;;5036602;28;20462;-79
2023/05/21 09:13:42;;;;;;;1999.90;999.90;;;19.70;70.50;;;;;;5029209;28;20018;-79
2023/05/21 09:16:09;;;;;;;1999.90;999.90;;;19.80;70.70;;;;;;5032086;28;20030;-78
2023/05/21 09:18:35;;;;;;;1999.90;999.90;;;19.90;70.40;;;;;;5035265;28;20025;-77
2023/05/21 09:21:25;;;;;;;1999.90;999.90;;;20.00;70.30;;;;;;5039099;28;20037;-77
2023/05/21 09:23:55;;;;;;;1999.90;999.90;;;20.20;68.10;;;;;;5025271;28;20408;-78
2023/05/21 09:26:21;;;;;;;1999.90;999.90;;;20.10;69.10;;;;;;5019858;28;20038;-78
2023/05/21 09:28:46;;;;;;;1999.90;999.90;;;20.10;70.10;;;;;;5036629;28;20045;-78
2023/05/21 09:31:12;;;;;;;1999.90;999.90;;;20.10;68.60;;;;;;5009238;28;20037;-78
2023/05/21 09:33:47;;;;;;;1999.90;999.90;;;20.20;68.70;;;;;;5032375;28;20831;-78
2023/05/21 09:36:13;;;;;;;1999.90;999.90;;;20.10;68.30;;;;;;5035400;28;20168;-78
2023/05/21 09:38:38;;;;;;;1999.90;999.90;;;20.00;68.00;;;;;;5029756;28;20112;-78
2023/05/21 09:41:05;;;;;;;1999.90;999.90;;;20.30;68.30;;;;;;5034379;28;20044;-78
2023/05/21 09:43:31;;;;;;;1999.90;999.90;;;20.40;67.30;;;;;;5029796;28;20052;-75
2023/05/21 09:45:59;;;;;;;1999.90;999.90;;;20.30;66.90;;;;;;5013783;28;20419;-78
2023/05/21 09:48:54;;;;;;;1999.90;999.90;;;20.40;67.30;;;;;;5031941;28;20548;-78
2023/05/21 09:51:20;;;;;;;1999.90;999.90;;;20.70;66.10;;;;;;5030218;28;20049;-75
2023/05/21 09:53:58;;;;;;;1999.90;999.90;;;20.40;66.90;;;;;;5032944;28;20025;-78
2023/05/21 09:56:28;;;;;;;1999.90;999.90;;;20.50;67.10;;;;;;5035252;28;20025;-77
2023/05/21 09:58:56;;;;;;;1999.90;999.90;;;20.70;66.50;;;;;;5036995;28;20033;-78
2023/05/21 10:01:23;;;;;;;1999.90;999.90;;;20.60;64.90;;;;;;5033913;28;20125;-76
2023/05/21 10:03:56;;;;;;;1999.90;999.90;;;20.60;66.10;;;;;;5034113;28;20033;-76
2023/05/21 10:06:27;;;;;;;1999.90;999.90;;;21.00;65.50;;;;;;5034917;28;20128;-78
2023/05/21 10:08:55;;;;;;;1999.90;999.90;;;20.80;64.20;;;;;;5032302;28;20094;-78
2023/05/21 10:11:30;;;;;;;1999.90;999.90;;;20.80;65.50;;;;;;5034322;28;20029;-76
2023/05/21 10:14:18;;;;;;;1999.90;999.90;;;21.30;64.90;;;;;;5030698;28;20043;-79
2023/05/21 10:16:53;;;;;;;1999.90;999.90;;;21.80;64.30;;;;;;5028425;28;20036;-85
2023/05/21 10:19:19;;;;;;;1999.90;999.90;;;21.40;64.00;;;;;;5032697;28;20087;-84
2023/05/21 10:21:45;;;;;;;1999.90;999.90;;;21.80;64.60;;;;;;5028923;28;20021;-84
2023/05/21 10:24:13;;;;;;;1999.90;999.90;;;21.80;63.50;;;;;;5030210;28;20104;-88
2023/05/21 10:26:40;;;;;;;1999.90;999.90;;;21.90;62.50;;;;;;5048998;28;20079;-80
2023/05/21 10:29:07;;;;;;;1999.90;999.90;;;21.40;64.70;;;;;;5033708;28;20132;-83
2023/05/21 10:31:34;;;;;;;1999.90;999.90;;;21.20;64.40;;;;;;5032402;28;20036;-83
2023/05/21 10:34:04;;;;;;;1999.90;999.90;;;21.30;63.30;;;;;;5035352;28;20068;-82
2023/05/21 10:36:31;;;;;;;1999.90;999.90;;;21.40;63.40;;;;;;5033250;28;20028;-83
2023/05/21 10:38:59;;;;;;;1999.90;999.90;;;21.30;64.90;;;;;;5035117;28;20057;-83
2023/05/21 10:41:30;;;;;;;1999.90;999.90;;;21.60;64.00;;;;;;5043991;28;20028;-86
2023/05/21 10:43:59;;;;;;;1999.90;999.90;;;21.30;64.60;;;;;;5025168;28;20492;-86
2023/05/21 10:46:33;;;;;;;1999.90;999.90;;;21.50;63.30;;;;;;5031479;28;20048;-84
2023/05/21 10:49:36;;;;;;;1999.90;999.90;;;22.10;62.40;;;;;;5031536;28;20116;-84
2023/05/21 10:52:31;;;;;;;1999.90;999.90;;;22.60;62.50;;;;;;5030998;28;20033;-78
2023/05/21 10:55:23;;;;;;;1999.90;999.90;;;23.00;59.30;;;;;;5032088;28;20045;-79
2023/05/21 10:58:10;;;;;;;1999.90;999.90;;;22.70;61.00;;;;;;5026757;28;20384;-79
2023/05/21 11:00:37;;;;;;;1999.90;999.90;;;23.20;58.70;;;;;;5027367;28;20571;-79
2023/05/21 11:03:03;;;;;;;1999.90;999.90;;;23.30;57.70;;;;;;5030586;28;20560;-78
2023/05/21 11:05:50;;;;;;;1999.90;999.90;;;23.30;58.30;;;;;;5032426;28;20084;-79
2023/05/21 11:08:34;;;;;;;1999.90;999.90;;;23.20;58.30;;;;;;5029172;28;20079;-79
2023/05/21 11:11:01;;;;;;;1999.90;999.90;;;22.50;59.50;;;;;;5031144;28;20487;-78
2023/05/21 11:13:44;;;;;;;1999.90;999.90;;;22.30;59.90;;;;;;5030307;28;20032;-79
2023/05/21 11:16:14;;;;;;;1999.90;999.90;;;22.10;60.80;;;;;;5028053;28;20035;-81
2023/05/21 11:18:46;;;;;;;;;;;23.00;58.70;;;;;;5022054;28;20032;-82
2023/05/21 11:21:17;;;;;;;1999.90;999.90;;;23.50;56.50;;;;;;5035073;28;19929;-82
2023/05/21 11:24:18;;;;;;;1999.90;999.90;;;23.60;56.80;;;;;;5037906;28;20054;-82
2023/05/21 11:26:50;;;;;;;1999.90;999.90;;;23.60;56.60;;;;;;5032673;28;20050;-79
2023/05/21 11:29:17;;;;;;;1999.90;999.90;;;23.50;54.80;;;;;;5033703;28;20048;-81
2023/05/21 11:31:48;;;;;;;1999.90;999.90;;;23.50;54.70;;;;;;5033657;28;20044;-80
2023/05/21 11:34:27;;;;;;;1999.90;999.90;;;23.30;54.20;;;;;;5018500;28;20147;-81
2023/05/21 11:37:26;;;;;;;1999.90;999.90;;;24.00;53.50;;;;;;5033860;28;20029;-79
2023/05/21 11:39:52;;;;;;;1999.90;999.90;;;23.80;53.80;;;;;;5025271;28;20041;-79
2023/05/21 11:42:37;;;;;;;1999.90;999.90;;;24.10;54.70;;;;;;5016262;28;20029;-79
2023/05/21 11:45:03;;;;;;;1999.90;999.90;;;24.90;51.80;;;;;;5028272;28;20034;-78
2023/05/21 11:47:38;;;;;;;1999.90;999.90;;;24.70;55.50;;;;;;5030114;28;20041;-80
2023/05/21 11:50:05;;;;;;;1999.90;999.90;;;24.50;52.70;;;;;;5028626;28;20041;-80
2023/05/21 11:52:34;;;;;;;1999.90;999.90;;;23.40;53.70;;;;;;5029623;28;20066;-81
2023/05/21 11:55:00;;;;;;;1999.90;999.90;;;23.80;52.70;;;;;;5029471;28;20034;-81
2023/05/21 11:57:30;;;;;;;1999.90;999.90;;;23.90;52.90;;;;;;5026702;28;20502;-82
2023/05/21 11:59:57;;;;;;;;;;;23.90;53.10;;;;;;5013655;28;20084;-81
2023/05/21 12:02:26;;;;;;;1999.90;999.90;;;24.00;53.20;;;;;;5026255;28;20386;-83
2023/05/21 12:04:53;;;;;;;1999.90;999.90;;;24.60;53.30;;;;;;5027846;28;20409;-82
2023/05/21 12:07:19;;;;;;;1999.90;999.90;;;26.30;51.10;;;;;;5024025;28;20037;-82
2023/05/21 12:09:47;;;;;;;1999.90;999.90;;;26.80;48.10;;;;;;5028067;28;20034;-81